Time;durP1;ratioP1;P1;durP2;ratioP2;P2;SDS_P1;SDS_P2;PMS_P1;PMS_P2;Temp;Humidity;BMP_temperature;BMP_pressure;BME280_temperature;BME280_humidity;BME280_pressure;Samples;Min_cycle;Max_cycle;Signal;HPM_P1;HPM_P2
2024/02/12 00:01:40;;;;;;;3.90;2.70;;;;;;;9.05;100.00;98128.81;129848;1260;115131;-62
2024/02/12 00:04:43;;;;;;;5.20;3.80;;;;;;;9.04;100.00;98129.64;129887;1259;128904;-65
2024/02/12 00:07:45;;;;;;;4.40;2.90;;;;;;;9.01;100.00;98129.32;130000;1259;114709;-62
2024/02/12 00:10:48;;;;;;;4.30;2.00;;;;;;;8.99;100.00;98133.77;129905;1259;114828;-66
2024/02/12 00:13:50;;;;;;;4.50;2.00;;;;;;;8.95;100.00;98135.27;129662;1260;114789;-65
2024/02/12 00:16:54;;;;;;;4.20;2.30;;;;;;;8.93;100.00;98140.45;129769;1255;114768;-65
2024/02/12 00:19:56;;;;;;;2.80;1.70;;;;;;;8.91;100.00;98142.94;129689;1259;114764;-66
2024/02/12 00:23:01;;;;;;;3.60;2.20;;;;;;;8.89;100.00;98145.36;129752;1260;114795;-66
2024/02/12 00:26:05;;;;;;;2.20;1.50;;;;;;;8.88;100.00;98145.11;129699;1278;116499;-66
2024/02/12 00:29:08;;;;;;;3.70;1.90;;;;;;;8.87;100.00;98149.09;129733;1258;114695;-67
2024/02/12 00:32:10;;;;;;;2.30;1.40;;;;;;;8.86;100.00;98151.52;129876;1271;114704;-65
2024/02/12 00:35:15;;;;;;;2.40;1.50;;;;;;;8.82;99.97;98159.40;129759;1278;114822;-66
2024/02/12 00:38:19;;;;;;;2.20;1.60;;;;;;;8.80;100.00;98162.44;129751;1255;128770;-67
2024/02/12 00:41:22;;;;;;;3.00;1.30;;;;;;;8.77;100.00;98161.96;129890;1278;114724;-66
2024/02/12 00:44:24;;;;;;;2.10;1.50;;;;;;;8.77;99.94;98166.41;129825;1259;114731;-66
2024/02/12 00:47:26;;;;;;;2.60;1.40;;;;;;;8.76;100.00;98168.27;129918;1260;114708;-66
2024/02/12 00:50:29;;;;;;;2.30;1.30;;;;;;;8.75;100.00;98166.88;129808;1278;114716;-65
2024/02/12 00:53:31;;;;;;;2.10;1.00;;;;;;;8.74;99.87;98166.09;129729;1257;114852;-66
2024/02/12 00:56:33;;;;;;;3.60;1.40;;;;;;;8.71;99.95;98167.17;129787;1259;115372;-66
2024/02/12 00:59:41;;;;;;;2.30;1.20;;;;;;;8.69;99.96;98167.00;129829;1257;114719;-64
2024/02/12 01:02:45;;;;;;;2.80;1.20;;;;;;;8.67;99.94;98169.48;129735;1268;114801;-65
2024/02/12 01:05:48;;;;;;;3.10;2.00;;;;;;;8.65;99.91;98173.02;129894;1259;115449;-67
2024/02/12 01:08:50;;;;;;;2.60;1.60;;;;;;;8.63;100.00;98176.11;129700;1257;114719;-66
2024/02/12 01:11:53;;;;;;;2.60;1.00;;;;;;;8.61;99.76;98179.00;129985;1259;114695;-65
2024/02/12 01:14:55;;;;;;;3.10;1.20;;;;;;;8.59;99.84;98184.70;129768;1273;116373;-67
2024/02/12 01:17:57;;;;;;;3.30;1.20;;;;;;;8.58;99.94;98184.55;129660;1257;114784;-65
2024/02/12 01:20:59;;;;;;;3.30;1.40;;;;;;;8.58;99.95;98186.20;130133;1260;114691;-67
2024/02/12 01:24:02;;;;;;;2.30;1.30;;;;;;;8.57;99.86;98183.41;129699;1265;114713;-64
2024/02/12 01:27:04;;;;;;;3.00;1.70;;;;;;;8.56;99.81;98184.36;129608;1278;329534;-64
2024/02/12 01:30:08;;;;;;;1.60;0.80;;;;;;;8.56;99.85;98188.44;130031;1259;115197;-62
2024/02/12 01:33:10;;;;;;;2.40;1.40;;;;;;;8.55;99.77;98188.17;130176;1257;114675;-62
2024/02/12 01:36:13;;;;;;;2.30;1.20;;;;;;;8.54;99.77;98188.06;129743;1260;115456;-61
2024/02/12 01:39:16;;;;;;;2.90;1.40;;;;;;;8.52;100.00;98188.00;129770;1259;114740;-61
2024/02/12 01:42:19;;;;;;;2.00;1.10;;;;;;;8.50;99.74;98190.67;129976;1260;114754;-62
2024/02/12 01:45:26;;;;;;;1.90;1.20;;;;;;;8.49;99.77;98193.73;129759;1259;115179;-63
2024/02/12 01:48:30;;;;;;;3.50;1.20;;;;;;;8.49;99.85;98196.77;129600;1263;114705;-61
2024/02/12 01:51:32;;;;;;;3.10;1.20;;;;;;;8.50;99.95;98197.64;129769;1273;114634;-61
2024/02/12 01:54:35;;;;;;;1.90;1.10;;;;;;;8.47;99.73;98201.17;129689;1275;114841;-60
2024/02/12 01:57:38;;;;;;;3.90;1.40;;;;;;;8.45;99.66;98202.05;129765;1256;114730;-61
2024/02/12 02:00:45;;;;;;;1.50;0.80;;;;;;;8.44;99.72;98203.59;129825;1259;114709;-61
2024/02/12 02:03:48;;;;;;;1.60;0.90;;;;;;;8.43;99.91;98204.19;129550;1262;114835;-63
2024/02/12 02:06:53;;;;;;;2.80;1.20;;;;;;;8.43;99.63;98207.90;129561;1259;116391;-64
2024/02/12 02:09:57;;;;;;;1.50;0.80;;;;;;;8.41;99.66;98210.92;129511;1265;114895;-61
2024/02/12 02:13:00;;;;;;;3.20;1.40;;;;;;;8.37;99.54;98210.80;129613;1260;127895;-61
2024/02/12 02:16:03;;;;;;;1.70;1.00;;;;;;;8.36;99.68;98210.55;129695;1259;114710;-61
2024/02/12 02:19:05;;;;;;;2.30;1.10;;;;;;;8.35;99.85;98218.02;129758;1261;114877;-61
2024/02/12 02:22:08;;;;;;;1.80;0.90;;;;;;;8.35;99.75;98217.23;129851;1278;114746;-64
2024/02/12 02:25:11;;;;;;;1.80;1.10;;;;;;;8.34;99.61;98219.77;129651;1259;114874;-64
2024/02/12 02:28:13;;;;;;;2.50;1.60;;;;;;;8.31;99.51;98224.80;129827;1259;114767;-62
2024/02/12 02:31:16;;;;;;;2.00;1.20;;;;;;;8.29;99.59;98229.05;129645;1273;114826;-61
2024/02/12 02:34:18;;;;;;;1.80;1.50;;;;;;;8.26;99.70;98230.27;130102;1256;116118;-62
2024/02/12 02:37:21;;;;;;;1.80;1.00;;;;;;;8.26;99.80;98235.86;130039;1257;116320;-64
2024/02/12 02:40:23;;;;;;;1.40;1.10;;;;;;;8.22;99.71;98236.99;129660;1262;114844;-65
2024/02/12 02:43:26;;;;;;;1.30;0.90;;;;;;;8.19;99.58;98242.84;129896;1270;114727;-66
2024/02/12 02:46:28;;;;;;;2.40;1.40;;;;;;;8.17;99.76;98242.54;130040;1275;114727;-64
2024/02/12 02:49:31;;;;;;;1.70;1.10;;;;;;;8.16;99.74;98245.05;129968;1259;114735;-64
2024/02/12 02:52:34;;;;;;;1.80;1.20;;;;;;;8.15;99.48;98249.92;129880;1259;114802;-65
2024/02/12 02:55:36;;;;;;;2.70;1.40;;;;;;;8.15;99.89;98253.48;129694;1278;114869;-66
2024/02/12 02:58:38;;;;;;;2.20;1.30;;;;;;;8.17;99.73;98255.09;129827;1259;114733;-66
2024/02/12 03:01:40;;;;;;;1.90;1.00;;;;;;;8.18;99.71;98252.77;129700;1260;114753;-63
2024/02/12 03:04:42;;;;;;;8.30;1.60;;;;;;;8.17;99.42;98254.80;129690;1259;114715;-65
2024/02/12 03:07:47;;;;;;;2.50;1.20;;;;;;;8.16;99.69;98257.71;129859;1278;114764;-66
2024/02/12 03:10:53;;;;;;;2.80;1.70;;;;;;;8.15;99.62;98268.25;129727;1261;114879;-65
2024/02/12 03:13:55;;;;;;;3.10;1.30;;;;;;;8.13;99.62;98272.83;129688;1266;128951;-65
2024/02/12 03:16:58;;;;;;;2.00;1.20;;;;;;;8.12;99.43;98278.77;129763;1259;115385;-65
2024/02/12 03:20:00;;;;;;;2.10;1.10;;;;;;;8.11;99.75;98278.34;130142;1257;114765;-62
2024/02/12 03:23:03;;;;;;;2.30;1.70;;;;;;;8.09;99.68;98280.79;129986;1259;114791;-63
2024/02/12 03:26:06;;;;;;;2.40;1.40;;;;;;;8.06;99.69;98282.73;130043;1268;114706;-64
2024/02/12 03:29:08;;;;;;;2.30;1.50;;;;;;;8.06;99.65;98283.80;129895;1259;115392;-63
2024/02/12 03:32:10;;;;;;;3.10;1.20;;;;;;;8.05;99.53;98285.65;129726;1258;114774;-64
2024/02/12 03:35:12;;;;;;;2.80;1.40;;;;;;;8.05;99.55;98286.21;129740;1267;114696;-65
2024/02/12 03:38:14;;;;;;;2.30;1.20;;;;;;;8.03;99.47;98289.70;129674;1276;114715;-64
2024/02/12 03:41:18;;;;;;;1.80;1.20;;;;;;;8.02;99.61;98289.52;129678;1268;114787;-64
2024/02/12 03:44:20;;;;;;;2.80;1.80;;;;;;;7.99;99.65;98292.81;129759;1259;114789;-62
2024/02/12 03:47:27;;;;;;;3.40;1.80;;;;;;;7.98;99.46;98295.94;129737;1259;114707;-63
2024/02/12 04:00:58;;;;;;;3.80;1.70;;;;;;;7.91;99.63;98309.04;129675;1279;114723;-63
2024/02/12 04:04:00;;;;;;;3.30;2.00;;;;;;;7.90;99.40;98310.94;129798;1262;114786;-67
2024/02/12 04:07:02;;;;;;;3.60;1.60;;;;;;;7.88;99.43;98308.89;129518;1273;114708;-63
2024/02/12 04:10:12;;;;;;;3.50;1.80;;;;;;;7.88;99.66;98313.67;129417;1280;128765;-63
2024/02/12 04:13:14;;;;;;;3.30;2.00;;;;;;;7.88;99.44;98317.27;129394;1258;114762;-63
2024/02/12 04:16:17;;;;;;;4.30;1.80;;;;;;;7.87;99.41;98316.30;129566;1261;114782;-63
2024/02/12 04:19:22;;;;;;;3.10;1.80;;;;;;;7.85;99.46;98317.31;129594;1261;115181;-64
2024/02/12 04:22:26;;;;;;;3.70;2.50;;;;;;;7.83;99.33;98317.11;129402;1261;114749;-64
2024/02/12 04:25:28;;;;;;;3.90;2.00;;;;;;;7.83;99.41;98321.70;129225;1266;128019;-63
2024/02/12 04:28:32;;;;;;;4.80;2.80;;;;;;;7.83;99.44;98321.39;129422;1264;114774;-64
2024/02/12 04:31:35;;;;;;;4.70;1.90;;;;;;;7.81;99.33;98326.14;129496;1259;114717;-64
2024/02/12 04:34:38;;;;;;;3.80;2.30;;;;;;;7.80;99.22;98325.45;129582;1257;114790;-64
2024/02/12 04:37:44;;;;;;;4.50;2.70;;;;;;;7.80;99.36;98329.39;129547;1259;114708;-64
2024/02/12 04:40:46;;;;;;;4.40;2.70;;;;;;;7.79;99.32;98328.91;129381;1263;127767;-69
2024/02/12 04:43:48;;;;;;;4.60;2.30;;;;;;;7.79;99.45;98329.46;129534;1261;114762;-64
2024/02/12 04:46:50;;;;;;;3.80;2.40;;;;;;;7.79;99.14;98332.83;129478;1261;114810;-69
2024/02/12 04:49:52;;;;;;;3.70;2.20;;;;;;;7.79;99.34;98335.70;129380;1263;115092;-64
2024/02/12 04:52:54;;;;;;;4.50;2.40;;;;;;;7.79;99.24;98336.08;129499;1261;115166;-63
2024/02/12 04:55:56;;;;;;;5.10;2.30;;;;;;;7.77;99.06;98333.00;129510;1259;115209;-65
2024/02/12 04:58:59;;;;;;;5.70;2.60;;;;;;;7.76;99.17;98336.05;129392;1280;114694;-65
2024/02/12 05:02:01;;;;;;;3.90;2.30;;;;;;;7.75;99.29;98338.29;129553;1261;114817;-68
2024/02/12 05:05:06;;;;;;;7.10;3.20;;;;;;;7.74;99.33;98344.19;129708;1261;116253;-66
2024/02/12 05:08:08;;;;;;;3.80;2.20;;;;;;;7.73;99.32;98343.70;129515;1265;116521;-70
2024/02/12 05:11:10;;;;;;;3.60;2.40;;;;;;;7.73;99.38;98346.02;129489;1259;114805;-65
2024/02/12 05:14:11;;;;;;;5.00;2.60;;;;;;;7.70;98.99;98346.40;129766;1261;114852;-67
2024/02/12 05:17:16;;;;;;;4.60;2.00;;;;;;;7.68;99.18;98346.91;129744;1273;114713;-69
2024/02/12 05:23:39;;;;;;;3.50;2.30;;;;;;;7.67;99.20;98354.95;129391;1280;128627;-67
2024/02/12 05:26:41;;;;;;;4.40;2.30;;;;;;;7.66;98.96;98358.23;129384;1260;115232;-65
2024/02/12 05:29:43;;;;;;;3.30;2.40;;;;;;;7.63;98.85;98360.23;129818;1257;114705;-64
2024/02/12 05:32:45;;;;;;;3.10;1.70;;;;;;;7.61;98.71;98366.91;129428;1262;114828;-64
2024/02/12 05:35:47;;;;;;;3.80;2.30;;;;;;;7.60;98.93;98369.52;129515;1259;114733;-64
2024/02/12 05:38:50;;;;;;;4.20;2.20;;;;;;;7.59;98.83;98372.77;129713;1262;115030;-64
2024/02/12 05:41:52;;;;;;;4.40;2.10;;;;;;;7.57;98.86;98376.09;129549;1264;114792;-64
2024/02/12 05:44:54;;;;;;;3.60;2.50;;;;;;;7.57;99.00;98378.25;129449;1271;114756;-65
2024/02/12 05:47:56;;;;;;;3.90;2.40;;;;;;;7.57;99.22;98385.34;129408;1261;114717;-65
2024/02/12 05:50:59;;;;;;;3.50;2.20;;;;;;;7.56;99.06;98389.64;129646;1261;114638;-64
2024/02/12 05:54:01;;;;;;;5.50;2.20;;;;;;;7.54;98.76;98390.31;129775;1259;114774;-67
2024/02/12 05:57:06;;;;;;;4.40;2.30;;;;;;;7.52;98.86;98390.45;129521;1259;114859;-65
2024/02/12 06:00:10;;;;;;;3.40;2.10;;;;;;;7.49;98.88;98395.09;129479;1280;114884;-64
2024/02/12 06:03:12;;;;;;;4.80;2.60;;;;;;;7.48;98.52;98395.86;129587;1263;127740;-65
2024/02/12 06:06:16;;;;;;;4.10;2.70;;;;;;;7.45;98.87;98402.80;129820;1261;114809;-67
2024/02/12 06:09:18;;;;;;;6.50;3.00;;;;;;;7.44;98.86;98405.88;129582;1261;114896;-65
2024/02/12 06:12:20;;;;;;;5.30;3.40;;;;;;;7.42;98.73;98409.39;129746;1261;114706;-63
2024/02/12 06:15:22;;;;;;;5.30;2.80;;;;;;;7.40;98.88;98413.09;129518;1280;114809;-67
2024/02/12 06:18:24;;;;;;;6.10;2.90;;;;;;;7.38;98.83;98411.44;129418;1261;115265;-67
2024/02/12 06:21:26;;;;;;;5.00;3.80;;;;;;;7.37;98.69;98412.38;129565;1262;114712;-66
2024/02/12 06:24:28;;;;;;;10.20;4.40;;;;;;;7.39;98.75;98418.17;129337;1274;128550;-64
2024/02/12 06:27:30;;;;;;;3.80;2.70;;;;;;;7.41;98.97;98419.60;129594;1280;114817;-64
2024/02/12 06:30:32;;;;;;;5.30;3.20;;;;;;;7.44;99.09;98418.38;129777;1261;114715;-64
2024/02/12 06:33:34;;;;;;;4.90;3.40;;;;;;;7.48;98.90;98425.41;129491;1265;114829;-64
2024/02/12 06:36:36;;;;;;;4.90;3.10;;;;;;;7.51;98.87;98428.23;129600;1261;115255;-66
2024/02/12 06:39:42;;;;;;;8.00;3.60;;;;;;;7.54;98.91;98434.21;129730;1259;114709;-68
2024/02/12 06:42:44;;;;;;;7.00;3.80;;;;;;;7.58;98.60;98443.54;129573;1262;114708;-64
2024/02/12 06:45:46;;;;;;;6.50;3.50;;;;;;;7.61;98.62;98444.96;129417;1280;114788;-67
2024/02/12 06:48:49;;;;;;;4.40;2.80;;;;;;;7.65;98.86;98446.09;129510;1262;115314;-64
2024/02/12 06:51:51;;;;;;;4.70;2.90;;;;;;;7.70;98.82;98450.36;129470;1280;114763;-65
2024/02/12 06:54:53;;;;;;;5.70;3.10;;;;;;;7.77;98.93;98454.36;129472;1279;115274;-65
2024/02/12 06:57:57;;;;;;;5.00;3.30;;;;;;;7.84;98.69;98459.56;129502;1259;115156;-66
2024/02/12 07:00:59;;;;;;;4.50;3.00;;;;;;;7.89;98.69;98460.64;129516;1273;114771;-68
2024/02/12 07:04:01;;;;;;;4.90;3.30;;;;;;;7.97;98.88;98465.98;129408;1278;114784;-65
2024/02/12 07:07:03;;;;;;;5.20;3.70;;;;;;;8.04;98.83;98470.84;129442;1280;114767;-64
2024/02/12 07:10:07;;;;;;;6.60;3.70;;;;;;;8.11;98.71;98475.90;129534;1262;115076;-67
2024/02/12 07:13:08;;;;;;;5.30;3.30;;;;;;;8.18;98.37;98480.37;129336;1266;114768;-65
2024/02/12 07:16:18;;;;;;;4.40;3.10;;;;;;;8.26;98.74;98483.23;129421;1261;115225;-67
2024/02/12 07:19:20;;;;;;;6.80;3.30;;;;;;;8.34;98.99;98488.80;129351;1264;114845;-65
2024/02/12 07:22:22;;;;;;;5.30;3.70;;;;;;;8.44;98.71;98485.27;129432;1280;115095;-65
2024/02/12 07:25:24;;;;;;;7.80;3.40;;;;;;;8.52;98.58;98488.89;129593;1267;115390;-65
2024/02/12 07:28:27;;;;;;;7.00;3.90;;;;;;;8.59;98.32;98492.46;129595;1280;128483;-65
2024/02/12 07:31:28;;;;;;;4.00;2.70;;;;;;;8.68;98.24;98495.99;129426;1278;114713;-65
2024/02/12 07:34:31;;;;;;;5.20;2.70;;;;;;;8.76;98.47;98498.95;129799;1262;114723;-67
2024/02/12 07:37:34;;;;;;;6.70;2.60;;;;;;;8.83;98.15;98500.04;129532;1261;114693;-66
2024/02/12 07:40:37;;;;;;;4.90;3.30;;;;;;;8.89;97.88;98504.60;129721;1275;114820;-64
2024/02/12 07:43:42;;;;;;;3.90;2.00;;;;;;;8.97;98.08;98509.40;129584;1266;114823;-65
2024/02/12 07:46:44;;;;;;;5.10;2.30;;;;;;;9.06;98.00;98511.61;129487;1280;128203;-65
2024/02/12 07:49:47;;;;;;;5.60;2.70;;;;;;;9.13;97.83;98515.20;129580;1261;114775;-65
2024/02/12 07:52:49;;;;;;;4.00;2.40;;;;;;;9.21;97.72;98516.23;129580;1262;114717;-67
2024/02/12 07:55:55;;;;;;;4.70;2.20;;;;;;;9.26;97.47;98513.50;129522;1272;114804;-66
2024/02/12 07:58:57;;;;;;;5.20;2.20;;;;;;;9.36;97.47;98519.42;129385;1278;116452;-64
2024/02/12 08:02:02;;;;;;;7.30;3.10;;;;;;;9.40;97.16;98523.18;129599;1280;114880;-64
2024/02/12 08:05:05;;;;;;;4.80;2.80;;;;;;;9.49;97.13;98528.30;129539;1280;129126;-65
2024/02/12 08:08:07;;;;;;;4.00;2.50;;;;;;;9.53;96.68;98531.52;129551;1262;114803;-66
2024/02/12 08:11:09;;;;;;;6.10;3.30;;;;;;;9.58;96.77;98536.13;129433;1280;114770;-67
2024/02/12 08:14:11;;;;;;;6.60;2.80;;;;;;;9.65;96.72;98539.76;129574;1262;115285;-65
2024/02/12 08:17:13;;;;;;;5.10;2.50;;;;;;;9.69;96.44;98548.30;129471;1262;114848;-66
2024/02/12 08:20:16;;;;;;;5.30;2.30;;;;;;;9.76;96.27;98552.10;129495;1280;114700;-65
2024/02/12 08:23:18;;;;;;;3.80;2.10;;;;;;;9.84;96.27;98547.77;129617;1280;114725;-65
2024/02/12 08:26:22;;;;;;;8.30;4.80;;;;;;;9.92;95.84;98545.92;129747;1257;114744;-67
2024/02/12 08:29:29;;;;;;;6.50;3.70;;;;;;;10.00;95.69;98549.61;129390;1264;114897;-65
2024/02/12 08:32:31;;;;;;;8.30;5.10;;;;;;;10.08;95.55;98552.94;129779;1264;114883;-66
2024/02/12 08:35:34;;;;;;;4.90;2.60;;;;;;;10.16;95.27;98555.15;129433;1280;114834;-65
2024/02/12 08:38:36;;;;;;;4.80;3.70;;;;;;;10.26;95.52;98557.35;129653;1263;114854;-65
2024/02/12 08:41:38;;;;;;;4.90;4.00;;;;;;;10.33;94.91;98564.79;129583;1274;114883;-66
2024/02/12 08:44:40;;;;;;;4.30;3.00;;;;;;;10.39;94.95;98569.55;129530;1261;114721;-66
2024/02/12 08:47:42;;;;;;;10.70;6.50;;;;;;;10.42;94.63;98574.50;129616;1264;114808;-67
2024/02/12 08:50:45;;;;;;;5.30;2.70;;;;;;;10.45;94.32;98577.79;129530;1280;114848;-66
2024/02/12 08:53:49;;;;;;;6.40;3.50;;;;;;;10.45;94.22;98582.33;129592;1262;114816;-67
2024/02/12 08:56:53;;;;;;;5.10;2.80;;;;;;;10.46;93.74;98586.65;129522;1266;114748;-64
2024/02/12 08:59:56;;;;;;;10.30;4.40;;;;;;;10.52;94.21;98591.02;129604;1280;114722;-66
2024/02/12 09:02:59;;;;;;;10.40;4.70;;;;;;;10.61;94.21;98594.10;129737;1280;114867;-65
2024/02/12 09:06:01;;;;;;;13.40;4.00;;;;;;;10.71;93.96;98596.73;129613;1262;114809;-65
2024/02/12 09:09:04;;;;;;;16.40;6.20;;;;;;;10.81;93.72;98598.07;129705;1269;115150;-65
2024/02/12 09:12:06;;;;;;;15.60;5.30;;;;;;;10.91;93.39;98598.39;129374;1262;114858;-65
2024/02/12 09:15:10;;;;;;;9.60;3.10;;;;;;;11.00;93.43;98603.92;129523;1280;115099;-66
2024/02/12 09:18:12;;;;;;;7.40;3.70;;;;;;;11.06;92.80;98605.11;129493;1280;114921;-66
2024/02/12 09:21:14;;;;;;;6.00;3.10;;;;;;;11.09;92.59;98606.63;129534;1261;115488;-65
2024/02/12 09:24:18;;;;;;;5.20;2.80;;;;;;;11.17;92.60;98608.70;129475;1264;128160;-66
2024/02/12 09:27:20;;;;;;;4.90;1.80;;;;;;;11.25;92.58;98611.42;129502;1274;116458;-65
2024/02/12 09:30:22;;;;;;;3.20;1.80;;;;;;;11.34;92.60;98613.39;129451;1271;115242;-66
2024/02/12 09:33:25;;;;;;;4.80;2.00;;;;;;;11.37;92.07;98618.15;129452;1275;114796;-65
2024/02/12 09:36:28;;;;;;;6.90;2.30;;;;;;;11.41;91.96;98623.27;129572;1280;114784;-65
2024/02/12 09:39:31;;;;;;;3.70;2.10;;;;;;;11.44;91.54;98629.26;129335;1268;116358;-64
2024/02/12 09:42:33;;;;;;;4.30;3.10;;;;;;;11.46;91.60;98633.18;129583;1263;115350;-65
2024/02/12 09:45:45;;;;;;;5.40;2.80;;;;;;;11.54;91.28;98634.14;129639;1280;116214;-65
2024/02/12 09:48:48;;;;;;;4.50;2.40;;;;;;;11.65;91.41;98639.15;129348;1266;115071;-65
2024/02/12 09:51:51;;;;;;;4.70;2.70;;;;;;;11.79;91.42;98640.41;129528;1270;114765;-65
2024/02/12 09:54:55;;;;;;;4.90;2.20;;;;;;;11.91;91.11;98641.58;129552;1263;115284;-65
2024/02/12 09:57:59;;;;;;;4.00;2.40;;;;;;;11.94;90.31;98642.41;129563;1280;114913;-66
2024/02/12 10:01:01;;;;;;;4.50;2.30;;;;;;;11.98;90.27;98643.86;129472;1280;128770;-66
2024/02/12 10:04:04;;;;;;;4.10;2.10;;;;;;;12.01;90.02;98646.86;129582;1271;115937;-65
2024/02/12 10:07:06;;;;;;;6.00;2.00;;;;;;;12.03;89.84;98653.56;129506;1272;114749;-65
2024/02/12 10:10:12;;;;;;;5.40;1.60;;;;;;;12.04;89.68;98655.73;129426;1272;114800;-65
2024/02/12 10:13:15;;;;;;;4.90;2.10;;;;;;;12.08;89.32;98658.48;129480;1263;114849;-65
2024/02/12 10:16:19;;;;;;;4.90;1.70;;;;;;;12.07;88.93;98658.41;129455;1264;114835;-66
2024/02/12 10:19:21;;;;;;;3.50;1.80;;;;;;;12.07;88.41;98657.34;129602;1262;127909;-65
2024/02/12 10:22:23;;;;;;;3.00;2.00;;;;;;;12.07;88.16;98657.52;129508;1263;115281;-64
2024/02/12 10:25:26;;;;;;;2.60;1.50;;;;;;;12.04;87.89;98660.94;129817;1270;114729;-63
2024/02/12 10:28:28;;;;;;;3.00;1.70;;;;;;;11.99;87.18;98660.81;129436;1271;114751;-65
2024/02/12 10:31:30;;;;;;;4.20;2.00;;;;;;;11.90;86.77;98661.35;129856;1280;114970;-64
2024/02/12 10:34:33;;;;;;;3.10;1.80;;;;;;;11.87;86.80;98665.35;129624;1267;114755;-64
2024/02/12 10:37:35;;;;;;;3.20;1.40;;;;;;;11.90;86.81;98667.42;129507;1263;114806;-65
2024/02/12 10:40:56;;;;;;;3.80;1.40;;;;;;;11.93;86.79;98669.70;129573;1263;114728;-64
2024/02/12 10:43:58;;;;;;;4.10;1.40;;;;;;;11.96;86.62;98671.91;129338;1274;114758;-64
2024/02/12 10:47:00;;;;;;;2.90;1.60;;;;;;;12.00;86.58;98677.33;129504;1264;114787;-64
2024/02/12 10:50:07;;;;;;;2.50;1.50;;;;;;;12.03;86.25;98675.38;129521;1257;115340;-64
2024/02/12 10:53:10;;;;;;;3.20;1.80;;;;;;;12.06;86.13;98675.86;129337;1263;114702;-63
2024/02/12 10:56:12;;;;;;;3.30;1.50;;;;;;;12.05;85.24;98676.77;129396;1264;114796;-64
2024/02/12 10:59:16;;;;;;;3.50;1.60;;;;;;;12.02;84.77;98679.16;129507;1265;114846;-64
2024/02/12 11:02:19;;;;;;;4.60;1.80;;;;;;;12.06;85.64;98671.95;129505;1280;114857;-65
2024/02/12 11:05:21;;;;;;;3.40;1.60;;;;;;;12.15;86.06;98668.80;129512;1262;114720;-64
2024/02/12 11:08:23;;;;;;;4.70;1.80;;;;;;;12.24;85.59;98672.92;129456;1271;114772;-64
2024/02/12 11:11:29;;;;;;;5.40;2.20;;;;;;;12.32;85.47;98671.18;129375;1261;114773;-65
2024/02/12 11:14:32;;;;;;;3.60;1.60;;;;;;;12.39;84.71;98673.43;129424;1280;128813;-65
2024/02/12 11:17:35;;;;;;;5.00;2.00;;;;;;;12.47;84.68;98676.41;129449;1280;114819;-65
2024/02/12 11:20:49;;;;;;;3.70;2.00;;;;;;;12.52;84.22;98673.45;129622;1262;114767;-65
2024/02/12 11:24:01;;;;;;;3.20;1.80;;;;;;;12.62;84.22;98678.41;129585;1261;115282;-64
2024/02/12 11:27:08;;;;;;;3.10;1.80;;;;;;;12.71;84.09;98677.77;129466;1264;116239;-65
2024/02/12 11:30:11;;;;;;;3.40;1.60;;;;;;;12.82;83.80;98679.95;129725;1280;128779;-64
2024/02/12 11:33:14;;;;;;;4.30;2.00;;;;;;;12.91;83.98;98686.09;129526;1272;114813;-64
2024/02/12 11:36:17;;;;;;;3.40;1.80;;;;;;;13.02;83.77;98686.27;129616;1260;114773;-67
2024/02/12 11:39:19;;;;;;;4.20;2.40;;;;;;;13.11;83.69;98690.73;129836;1280;114803;-64
2024/02/12 11:42:23;;;;;;;2.30;1.00;;;;;;;13.18;83.26;98692.09;129921;1262;114839;-64
2024/02/12 11:45:25;;;;;;;3.30;1.50;;;;;;;13.21;82.60;98693.45;129906;1263;114807;-64
2024/02/12 11:48:30;;;;;;;5.40;1.90;;;;;;;13.25;82.62;98688.59;129464;1280;114877;-66
2024/02/12 11:51:34;;;;;;;3.80;1.60;;;;;;;13.37;82.60;98692.05;129636;1261;114730;-63
2024/02/12 11:54:39;;;;;;;2.50;1.40;;;;;;;13.46;81.95;98691.33;129439;1263;114757;-65
2024/02/12 11:57:43;;;;;;;2.50;1.20;;;;;;;13.51;81.65;98694.80;129421;1264;114776;-65
2024/02/12 12:00:46;;;;;;;3.30;1.70;;;;;;;13.46;80.86;98694.21;129456;1271;116249;-65
2024/02/12 12:03:49;;;;;;;2.20;1.60;;;;;;;13.33;80.32;98700.29;129411;1272;114690;-64
2024/02/12 12:06:51;;;;;;;3.50;1.60;;;;;;;13.14;80.06;98700.70;129625;1280;114719;-65
2024/02/12 12:10:10;;;;;;;4.00;1.90;;;;;;;12.99;79.56;98701.79;129559;1262;114714;-64
2024/02/12 12:13:14;;;;;;;3.40;1.30;;;;;;;12.85;79.37;98708.11;129459;1272;114834;-65
2024/02/12 12:16:17;;;;;;;1.90;1.40;;;;;;;12.77;79.59;98710.20;129500;1272;114818;-65
2024/02/12 12:19:19;;;;;;;2.80;1.80;;;;;;;12.71;79.15;98713.42;129605;1280;115165;-65
2024/02/12 12:22:22;;;;;;;3.50;1.50;;;;;;;12.62;79.23;98712.02;129583;1263;114730;-64
2024/02/12 12:25:24;;;;;;;5.30;1.60;;;;;;;12.54;78.99;98715.73;129624;1264;115223;-66
2024/02/12 12:28:26;;;;;;;3.80;1.30;;;;;;;12.46;78.78;98720.88;129595;1264;114746;-64
2024/02/12 12:31:29;;;;;;;3.80;2.60;;;;;;;12.33;78.40;98723.55;129404;1262;114854;-64
2024/02/12 12:34:31;;;;;;;3.40;2.30;;;;;;;12.20;78.44;98724.27;129537;1261;115125;-64
2024/02/12 12:37:34;;;;;;;4.20;2.40;;;;;;;12.09;78.33;98723.90;129904;1276;114630;-65
2024/02/12 12:40:37;;;;;;;3.50;2.00;;;;;;;11.99;78.14;98727.52;129649;1280;114760;-65
2024/02/12 12:43:40;;;;;;;3.50;2.40;;;;;;;11.89;78.09;98726.52;129529;1264;114810;-64
2024/02/12 12:46:42;;;;;;;3.20;1.90;;;;;;;11.84;78.19;98730.16;129447;1280;114800;-64
2024/02/12 12:49:44;;;;;;;4.10;2.20;;;;;;;11.83;77.98;98730.41;129347;1272;114749;-64
2024/02/12 12:52:46;;;;;;;4.10;2.10;;;;;;;11.89;78.62;98733.32;129468;1271;114990;-64
2024/02/12 12:55:49;;;;;;;6.20;2.40;;;;;;;12.02;78.90;98732.67;129535;1262;114705;-65
2024/02/12 12:58:52;;;;;;;4.50;3.00;;;;;;;12.14;78.51;98738.33;129595;1261;114639;-65
2024/02/12 13:01:54;;;;;;;4.90;3.10;;;;;;;12.24;78.32;98739.54;129413;1280;114721;-64
2024/02/12 13:04:57;;;;;;;4.40;2.50;;;;;;;12.31;78.33;98741.78;129512;1262;114772;-64
2024/02/12 13:07:59;;;;;;;6.60;2.80;;;;;;;12.38;77.82;98748.39;129431;1263;115250;-64
2024/02/12 13:11:02;;;;;;;4.70;2.40;;;;;;;12.39;77.30;98747.73;129645;1262;114730;-64
2024/02/12 13:14:07;;;;;;;7.90;3.70;;;;;;;12.44;77.69;98751.64;129865;1273;114721;-65
2024/02/12 13:17:09;;;;;;;53.50;23.00;;;;;;;12.48;77.61;98750.06;129303;1273;115047;-64
2024/02/12 13:20:21;;;;;;;34.40;15.40;;;;;;;12.46;77.19;98752.70;129559;1261;114713;-64
2024/02/12 13:23:24;;;;;;;34.50;17.00;;;;;;;12.47;77.05;98756.08;129370;1280;114810;-65
2024/02/12 13:26:26;;;;;;;110.40;43.30;;;;;;;12.43;76.76;98758.92;129310;1261;316301;-64
2024/02/12 13:29:29;;;;;;;27.50;11.60;;;;;;;12.37;76.78;98758.13;129672;1261;114686;-63
2024/02/12 13:32:31;;;;;;;29.90;15.40;;;;;;;12.32;76.84;98761.06;129433;1261;114832;-64
2024/02/12 13:35:37;;;;;;;52.80;28.30;;;;;;;12.21;76.63;98762.44;129857;1263;114697;-64
2024/02/12 13:38:42;;;;;;;14.50;8.40;;;;;;;12.17;76.97;98761.34;129394;1262;128390;-64
2024/02/12 13:41:44;;;;;;;6.60;4.30;;;;;;;12.12;76.53;98769.29;129408;1263;114653;-64
2024/02/12 13:44:47;;;;;;;9.10;5.60;;;;;;;12.05;76.81;98777.54;129588;1260;115412;-64
2024/02/12 13:47:49;;;;;;;6.20;3.40;;;;;;;11.99;76.92;98781.23;129581;1258;114742;-64
2024/02/12 13:50:53;;;;;;;4.40;3.00;;;;;;;11.95;76.68;98782.08;129467;1262;114742;-65
2024/02/12 13:53:55;;;;;;;5.30;2.80;;;;;;;11.91;76.85;98789.90;129366;1273;114706;-64
2024/02/12 13:56:58;;;;;;;3.30;1.70;;;;;;;11.92;77.07;98793.40;129481;1280;114851;-65
2024/02/12 14:00:00;;;;;;;3.50;2.10;;;;;;;11.93;77.20;98798.85;129429;1257;114786;-64
2024/02/12 14:03:04;;;;;;;3.90;2.60;;;;;;;11.92;76.86;98801.60;129430;1262;116436;-65
2024/02/12 14:06:07;;;;;;;4.50;2.90;;;;;;;11.87;76.52;98804.31;129496;1260;114619;-65
2024/02/12 14:09:10;;;;;;;3.80;2.00;;;;;;;11.86;76.97;98807.95;129494;1280;114713;-67
2024/02/12 14:12:14;;;;;;;6.10;3.70;;;;;;;11.89;77.33;98807.92;129590;1261;128098;-65
2024/02/12 14:15:19;;;;;;;3.80;3.10;;;;;;;11.92;77.69;98812.20;129730;1263;114879;-65
2024/02/12 14:18:22;;;;;;;5.10;3.20;;;;;;;11.94;77.49;98811.81;129914;1257;114708;-65
2024/02/12 14:21:24;;;;;;;3.80;2.40;;;;;;;11.97;77.76;98815.88;129676;1260;114792;-63